Time;durP1;ratioP1;P1;durP2;ratioP2;P2;SDS_P1;SDS_P2;PMS_P1;PMS_P2;Temp;Humidity;BMP_temperature;BMP_pressure;BME280_temperature;BME280_humidity;BME280_pressure;Samples;Min_cycle;Max_cycle;Signal;HPM_P1;HPM_P2
2021/07/18 00:02:02;;;;;;;14.20;10.97;;;;;;;17.10;100.00;96348.38;5011483;28;20435;-76
2021/07/18 00:04:28;;;;;;;16.20;11.30;;;;;;;17.11;100.00;96340.41;5009962;28;20425;-75
2021/07/18 00:06:54;;;;;;;15.57;11.03;;;;;;;17.11;100.00;96337.78;5010237;28;20424;-76
2021/07/18 00:09:19;;;;;;;20.07;10.57;;;;;;;17.13;100.00;96338.50;5010087;28;20494;-76
2021/07/18 00:11:44;;;;;;;11.68;9.93;;;;;;;17.20;100.00;96341.44;5010357;28;20834;-76
2021/07/18 00:14:12;;;;;;;13.53;9.50;;;;;;;17.06;100.00;96339.94;5010256;28;20428;-76
2021/07/18 00:16:38;;;;;;;12.43;10.10;;;;;;;17.01;100.00;96341.25;5010074;28;20818;-76
2021/07/18 00:19:03;;;;;;;12.60;10.35;;;;;;;17.05;100.00;96343.50;5008839;28;20428;-76
2021/07/18 00:21:28;;;;;;;13.57;10.30;;;;;;;17.09;100.00;96338.84;5009102;28;20456;-76
2021/07/18 00:23:54;;;;;;;12.18;9.90;;;;;;;17.15;100.00;96340.97;5010609;28;20831;-76
2021/07/18 00:26:20;;;;;;;14.65;9.80;;;;;;;17.07;100.00;96352.06;5010283;28;20976;-76
2021/07/18 00:28:45;;;;;;;13.45;9.50;;;;;;;16.96;100.00;96353.88;5008995;28;20467;-76
2021/07/18 00:31:12;;;;;;;15.50;11.23;;;;;;;16.89;100.00;96345.69;5014389;28;20516;-76
2021/07/18 00:33:38;;;;;;;13.50;10.18;;;;;;;16.89;100.00;96338.66;5009006;28;20428;-76
2021/07/18 00:36:04;;;;;;;15.02;9.80;;;;;;;16.85;100.00;96332.00;5008829;28;20441;-76
2021/07/18 00:38:29;;;;;;;12.48;9.00;;;;;;;16.91;100.00;96342.00;5010363;28;20429;-76
2021/07/18 00:40:55;;;;;;;11.03;8.43;;;;;;;16.93;100.00;96339.25;5008593;28;20478;-76
2021/07/18 00:43:20;;;;;;;15.67;9.30;;;;;;;16.76;100.00;96332.75;5010418;28;21093;-76
2021/07/18 00:45:45;;;;;;;12.07;9.27;;;;;;;16.70;100.00;96335.78;5012698;28;20504;-76
2021/07/18 00:48:12;;;;;;;10.57;9.05;;;;;;;16.67;100.00;96329.00;5012746;28;20464;-76
2021/07/18 00:50:43;;;;;;;16.95;11.48;;;;;;;16.61;100.00;96329.50;5013937;28;20823;-76
2021/07/18 00:53:09;;;;;;;18.67;11.10;;;;;;;16.61;100.00;96331.25;5014162;28;20433;-76
2021/07/18 00:55:38;;;;;;;13.87;9.67;;;;;;;16.64;100.00;96328.41;5013767;28;20427;-76
2021/07/18 00:58:03;;;;;;;12.93;10.63;;;;;;;16.65;100.00;96319.63;5012502;28;20540;-76
2021/07/18 01:00:29;;;;;;;17.10;11.97;;;;;;;16.56;100.00;96326.41;5015242;28;20854;-76
2021/07/18 01:02:55;;;;;;;18.25;11.50;;;;;;;16.60;100.00;96319.16;5012388;28;20432;-76
2021/07/18 01:05:22;;;;;;;16.03;11.50;;;;;;;16.57;100.00;96325.44;4997292;28;20483;-76
2021/07/18 01:07:47;;;;;;;19.05;12.90;;;;;;;16.50;100.00;96326.03;5002045;28;20513;-76
2021/07/18 01:10:13;;;;;;;14.00;11.30;;;;;;;16.55;100.00;96319.50;5008739;28;20903;-76
2021/07/18 01:12:38;;;;;;;16.00;13.00;;;;;;;16.48;100.00;96318.31;5012353;28;20439;-76
2021/07/18 01:15:05;;;;;;;22.98;12.25;;;;;;;16.45;100.00;96316.78;5014057;28;20432;-75
2021/07/18 01:17:30;;;;;;;17.17;12.35;;;;;;;16.34;100.00;96315.94;5013400;28;20440;-76
2021/07/18 01:19:56;;;;;;;14.10;11.40;;;;;;;16.32;100.00;96315.25;5013362;28;20425;-76
2021/07/18 01:22:22;;;;;;;17.40;11.53;;;;;;;16.34;100.00;96316.78;5012064;28;20435;-76
2021/07/18 01:24:48;;;;;;;18.70;11.05;;;;;;;16.40;100.00;96307.63;5012191;28;20460;-75
2021/07/18 01:27:13;;;;;;;13.33;10.10;;;;;;;16.55;100.00;96308.22;5013206;28;20463;-76
2021/07/18 01:29:39;;;;;;;12.63;10.40;;;;;;;16.49;100.00;96308.69;5016546;28;20450;-76
2021/07/18 01:32:05;;;;;;;12.30;10.05;;;;;;;16.48;100.00;96310.47;5013427;28;20519;-76
2021/07/18 01:34:30;;;;;;;10.25;8.20;;;;;;;16.59;100.00;96314.88;5012093;28;20423;-75
2021/07/18 01:36:56;;;;;;;11.98;9.73;;;;;;;16.40;100.00;96305.84;5012952;28;20467;-77
2021/07/18 01:39:24;;;;;;;15.45;10.35;;;;;;;16.30;100.00;96312.72;5011678;28;20517;-77
2021/07/18 01:41:51;;;;;;;12.48;9.27;;;;;;;16.30;100.00;96310.13;5012952;28;21001;-76
2021/07/18 01:44:16;;;;;;;11.75;9.35;;;;;;;16.27;100.00;96309.53;5012720;28;20938;-77
2021/07/18 01:46:42;;;;;;;11.30;8.57;;;;;;;16.34;100.00;96308.94;5012476;28;20431;-76
2021/07/18 01:49:09;;;;;;;12.97;9.13;;;;;;;16.33;100.00;96309.06;5013030;28;20432;-76
2021/07/18 01:51:35;;;;;;;15.05;9.60;;;;;;;16.35;100.00;96299.31;5012983;28;20456;-76
2021/07/18 01:54:03;;;;;;;9.68;8.43;;;;;;;16.41;100.00;96307.50;5011639;28;20455;-76
2021/07/18 01:56:30;;;;;;;15.70;8.90;;;;;;;16.50;100.00;96295.53;5011632;28;20421;-76
2021/07/18 01:58:55;;;;;;;11.20;9.27;;;;;;;16.24;100.00;96307.13;5012286;28;20941;-76
2021/07/18 02:01:25;;;;;;;14.63;9.15;;;;;;;16.04;100.00;96301.66;5012746;28;20425;-75
2021/07/18 02:03:50;;;;;;;11.90;8.20;;;;;;;16.01;100.00;96299.28;5012177;28;20487;-75
2021/07/18 02:06:16;;;;;;;9.70;7.97;;;;;;;16.00;100.00;96302.84;5010802;28;20871;-76
2021/07/18 02:08:41;;;;;;;11.43;7.90;;;;;;;15.98;100.00;96309.97;5012557;28;20424;-76
2021/07/18 02:11:07;;;;;;;9.50;7.33;;;;;;;16.05;100.00;96303.31;5012164;28;20431;-76
2021/07/18 02:13:34;;;;;;;9.97;7.20;;;;;;;16.10;100.00;96309.03;5010878;28;20440;-76
2021/07/18 02:16:00;;;;;;;10.48;7.32;;;;;;;16.01;100.00;96303.69;5010387;28;20425;-76
2021/07/18 02:18:26;;;;;;;14.65;8.02;;;;;;;15.97;100.00;96306.53;5010735;28;20495;-76
2021/07/18 02:20:52;;;;;;;7.53;6.73;;;;;;;16.11;100.00;96305.47;5012311;28;20519;-77
2021/07/18 02:23:18;;;;;;;11.77;7.75;;;;;;;15.97;100.00;96310.91;5012181;28;20440;-76
2021/07/18 02:25:43;;;;;;;10.25;8.07;;;;;;;15.64;100.00;96315.06;5011842;28;20428;-76
2021/07/18 02:28:09;;;;;;;13.60;7.93;;;;;;;15.54;100.00;96316.72;5010878;28;20483;-76
2021/07/18 02:30:35;;;;;;;13.60;8.17;;;;;;;15.53;100.00;96317.66;5016623;28;20930;-76
2021/07/18 02:33:01;;;;;;;13.38;8.65;;;;;;;15.50;100.00;96315.28;5011632;28;20814;-76
2021/07/18 02:35:26;;;;;;;9.30;7.17;;;;;;;15.61;100.00;96315.31;5011853;28;20420;-76
2021/07/18 02:37:52;;;;;;;12.33;8.00;;;;;;;15.64;100.00;96315.06;5012088;28;20502;-76
2021/07/18 02:40:19;;;;;;;13.25;7.97;;;;;;;15.72;100.00;96319.75;5010666;28;20790;-77
2021/07/18 02:42:45;;;;;;;9.13;6.80;;;;;;;15.67;100.00;96317.50;5012056;28;20428;-77
2021/07/18 02:45:12;;;;;;;13.32;7.40;;;;;;;15.63;100.00;96321.25;5010776;28;20416;-77
2021/07/18 02:47:40;;;;;;;10.75;6.68;;;;;;;15.64;100.00;96316.84;5010697;28;20420;-77
2021/07/18 02:50:05;;;;;;;13.63;7.43;;;;;;;15.56;100.00;96324.44;5012020;28;20515;-77
2021/07/18 02:52:31;;;;;;;10.48;7.38;;;;;;;15.54;100.00;96313.28;5012248;28;20966;-77
2021/07/18 02:54:56;;;;;;;11.90;7.50;;;;;;;15.47;100.00;96321.56;5010611;28;20509;-76
2021/07/18 02:57:22;;;;;;;14.02;7.40;;;;;;;15.47;100.00;96316.34;5011868;28;20433;-77
2021/07/18 02:59:47;;;;;;;12.98;6.55;;;;;;;15.58;100.00;96317.31;5009882;28;20787;-77
2021/07/18 03:02:13;;;;;;;9.80;7.40;;;;;;;15.63;100.00;96318.63;5011962;28;20424;-77
2021/07/18 03:04:39;;;;;;;9.90;6.40;;;;;;;15.50;100.00;96317.91;5011637;28;20421;-77
2021/07/18 03:07:05;;;;;;;11.30;7.00;;;;;;;15.65;100.00;96322.00;5011589;28;20906;-77
2021/07/18 03:09:30;;;;;;;8.77;6.18;;;;;;;15.58;100.00;96323.38;5010205;28;20431;-77
2021/07/18 03:11:55;;;;;;;9.03;7.10;;;;;;;15.56;100.00;96325.25;5010603;28;20483;-76
2021/07/18 03:14:21;;;;;;;10.03;7.20;;;;;;;15.39;100.00;96323.06;5010587;28;20449;-76
2021/07/18 03:16:49;;;;;;;10.70;7.18;;;;;;;15.23;100.00;96333.78;5011604;28;20834;-77
2021/07/18 03:19:16;;;;;;;9.18;7.05;;;;;;;15.35;100.00;96332.03;5011484;28;20447;-76
2021/07/18 03:21:43;;;;;;;11.90;6.90;;;;;;;15.24;100.00;96332.84;5010391;28;20922;-76
2021/07/18 03:24:09;;;;;;;10.52;7.05;;;;;;;15.03;100.00;96329.16;5010477;28;20431;-76
2021/07/18 03:26:34;;;;;;;9.23;7.00;;;;;;;14.96;100.00;96331.38;5010367;28;20424;-77
2021/07/18 03:29:00;;;;;;;9.45;6.13;;;;;;;14.95;100.00;96327.13;5009982;28;20443;-76
2021/07/18 03:31:25;;;;;;;11.57;6.43;;;;;;;14.91;100.00;96328.28;5010778;28;20424;-76
2021/07/18 03:33:51;;;;;;;8.32;6.43;;;;;;;15.00;100.00;96327.59;5010937;28;20803;-76
2021/07/18 03:36:16;;;;;;;10.27;6.30;;;;;;;15.03;100.00;96332.59;5010291;28;20515;-76
2021/07/18 03:38:43;;;;;;;14.80;6.57;;;;;;;15.01;100.00;96329.25;5006001;28;20446;-76
2021/07/18 03:41:09;;;;;;;9.40;6.60;;;;;;;14.95;100.00;96333.16;5009644;28;20763;-77
2021/07/18 03:43:34;;;;;;;7.50;5.90;;;;;;;15.02;100.00;96336.16;5009914;28;20470;-77
2021/07/18 03:46:00;;;;;;;10.53;6.43;;;;;;;15.08;100.00;96330.50;5010819;28;20500;-76
2021/07/18 03:48:25;;;;;;;9.50;6.27;;;;;;;15.01;100.00;96331.88;5011229;28;20423;-76
2021/07/18 03:50:51;;;;;;;9.02;6.40;;;;;;;14.96;100.00;96334.00;5011181;28;20420;-76
2021/07/18 03:53:16;;;;;;;10.30;5.60;;;;;;;14.94;100.00;96328.03;5010995;28;20401;-76
2021/07/18 03:55:43;;;;;;;7.13;5.47;;;;;;;14.82;100.00;96321.91;5010848;28;20432;-76
2021/07/18 03:58:09;;;;;;;11.27;6.05;;;;;;;14.93;100.00;96337.63;5011044;28;20427;-76
2021/07/18 04:00:34;;;;;;;8.70;5.93;;;;;;;14.95;100.00;96329.72;5017091;28;20432;-76
2021/07/18 04:02:59;;;;;;;8.67;5.80;;;;;;;15.00;100.00;96331.03;5009814;28;20795;-76
2021/07/18 04:05:25;;;;;;;7.57;5.57;;;;;;;15.01;100.00;96326.66;5010320;28;20492;-76
2021/07/18 04:07:50;;;;;;;11.10;6.20;;;;;;;14.84;100.00;96327.88;5009601;28;20934;-76
2021/07/18 04:10:16;;;;;;;10.40;5.70;;;;;;;14.69;100.00;96319.34;5010895;28;20513;-76
2021/07/18 04:12:42;;;;;;;10.33;5.53;;;;;;;14.77;100.00;96322.25;5010948;28;20491;-77
2021/07/18 04:15:09;;;;;;;7.55;5.10;;;;;;;14.84;100.00;96321.81;5016729;28;20489;-76
2021/07/18 04:17:34;;;;;;;8.13;5.25;;;;;;;14.89;100.00;96324.94;5020368;28;20443;-76
2021/07/18 04:20:00;;;;;;;9.05;5.53;;;;;;;14.66;100.00;96322.19;5026199;28;20743;-76
2021/07/18 04:22:25;;;;;;;6.80;5.03;;;;;;;14.51;100.00;96331.06;5034964;28;20936;-76
2021/07/18 04:24:51;;;;;;;7.73;4.97;;;;;;;14.45;100.00;96327.06;5015909;28;20923;-76
2021/07/18 04:27:16;;;;;;;8.83;5.40;;;;;;;14.57;100.00;96335.00;5021530;28;20419;-76
2021/07/18 04:29:43;;;;;;;6.22;5.05;;;;;;;14.68;100.00;96328.13;5018397;28;20515;-76
2021/07/18 04:32:08;;;;;;;10.50;4.50;;;;;;;14.82;100.00;96334.13;5016708;28;20428;-76
2021/07/18 04:34:34;;;;;;;7.53;5.50;;;;;;;14.94;100.00;96335.84;5017098;28;20933;-76
2021/07/18 04:36:59;;;;;;;5.82;5.05;;;;;;;15.00;100.00;96333.66;5016825;28;20412;-76
2021/07/18 04:39:25;;;;;;;9.05;5.57;;;;;;;15.09;100.00;96347.84;5016730;28;20413;-78
2021/07/18 04:41:50;;;;;;;6.87;5.67;;;;;;;15.38;100.00;96343.09;5015556;28;20503;-76
2021/07/18 04:44:16;;;;;;;6.43;5.67;;;;;;;15.33;100.00;96347.81;5014496;28;21148;-76
2021/07/18 04:46:42;;;;;;;11.17;6.90;;;;;;;15.42;100.00;96352.38;5021478;28;20467;-77
2021/07/18 04:49:08;;;;;;;7.60;5.65;;;;;;;15.51;100.00;96348.28;5019554;28;20429;-76
2021/07/18 04:51:33;;;;;;;8.90;5.80;;;;;;;15.42;100.00;96346.31;5016599;28;20439;-77
2021/07/18 04:53:59;;;;;;;10.20;5.43;;;;;;;15.38;100.00;96347.47;5016309;28;20416;-76
2021/07/18 04:56:24;;;;;;;7.27;4.57;;;;;;;15.31;100.00;96344.47;5017360;28;20431;-76
2021/07/18 04:58:50;;;;;;;5.87;4.50;;;;;;;15.42;100.00;96341.09;5015504;28;20431;-76
2021/07/18 05:01:15;;;;;;;6.47;4.50;;;;;;;15.47;100.00;96341.59;5015396;28;20439;-75
2021/07/18 05:03:42;;;;;;;9.48;4.25;;;;;;;15.58;100.00;96346.06;5006844;28;20417;-76
2021/07/18 05:06:08;;;;;;;7.95;4.20;;;;;;;15.71;100.00;96338.97;5016307;28;20725;-76
2021/07/18 05:08:34;;;;;;;5.85;3.85;;;;;;;15.90;100.00;96336.66;5015548;28;20424;-76
2021/07/18 05:11:00;;;;;;;6.70;3.90;;;;;;;16.07;100.00;96342.41;5016862;28;20405;-76
2021/07/18 05:13:25;;;;;;;5.07;3.57;;;;;;;16.03;100.00;96348.81;5016063;28;20508;-77
2021/07/18 05:15:50;;;;;;;5.40;3.00;;;;;;;16.02;100.00;96350.59;5012644;28;21007;-77
2021/07/18 05:18:16;;;;;;;6.13;3.65;;;;;;;16.16;100.00;96352.97;5019315;28;20914;-77
2021/07/18 05:20:43;;;;;;;6.32;3.58;;;;;;;16.27;99.71;96348.72;5015150;28;20511;-75
2021/07/18 05:23:09;;;;;;;7.10;3.38;;;;;;;16.33;97.52;96349.09;5035080;28;20423;-76
2021/07/18 05:25:35;;;;;;;5.43;2.97;;;;;;;16.34;96.65;96342.09;5035587;28;20425;-78
2021/07/18 05:28:01;;;;;;;5.07;3.35;;;;;;;16.32;95.36;96342.22;5023024;28;20780;-76
2021/07/18 05:30:26;;;;;;;8.55;3.25;;;;;;;16.26;94.92;96360.13;5013701;28;20421;-76
2021/07/18 05:32:52;;;;;;;4.95;3.22;;;;;;;16.43;96.13;96354.47;5014327;28;20427;-78
2021/07/18 05:35:18;;;;;;;5.55;3.25;;;;;;;16.36;96.26;96354.09;5012582;28;20428;-78
2021/07/18 05:37:45;;;;;;;4.32;2.83;;;;;;;16.50;96.20;96362.66;5014123;28;20432;-76
2021/07/18 05:40:12;;;;;;;5.10;3.03;;;;;;;16.58;93.74;96358.50;5012438;28;20511;-77
2021/07/18 05:42:37;;;;;;;5.22;2.70;;;;;;;16.44;93.46;96353.50;5013693;28;20773;-77
2021/07/18 05:45:04;;;;;;;7.70;2.50;;;;;;;16.42;92.44;96364.06;5012537;28;20509;-75
2021/07/18 05:47:32;;;;;;;5.13;2.70;;;;;;;16.62;90.41;96356.50;5012244;28;20929;-75
2021/07/18 05:49:58;;;;;;;3.30;2.00;;;;;;;16.62;89.11;96362.53;5001240;28;20428;-75
2021/07/18 05:52:23;;;;;;;5.13;2.60;;;;;;;16.65;88.87;96358.88;5012290;28;20439;-76
2021/07/18 05:54:50;;;;;;;7.03;2.37;;;;;;;16.70;88.05;96354.94;5013054;28;20429;-75
2021/07/18 05:57:15;;;;;;;5.35;2.50;;;;;;;16.76;87.02;96358.91;5011174;28;20427;-75
2021/07/18 05:59:40;;;;;;;5.00;2.40;;;;;;;16.69;87.57;96350.66;5018298;28;20422;-76
2021/07/18 06:02:06;;;;;;;4.47;2.33;;;;;;;16.80;85.71;96344.63;5027609;28;20455;-78
2021/07/18 06:04:31;;;;;;;6.53;2.40;;;;;;;16.68;84.99;96350.75;5009487;28;20413;-78
2021/07/18 06:06:57;;;;;;;3.38;2.17;;;;;;;16.79;82.97;96347.34;5007336;28;20424;-77
2021/07/18 06:09:22;;;;;;;3.20;1.73;;;;;;;17.09;85.72;96351.94;5006974;28;20421;-75
2021/07/18 06:11:49;;;;;;;3.57;1.93;;;;;;;17.53;86.56;96363.25;5006746;28;20435;-74
2021/07/18 06:14:14;;;;;;;9.35;2.17;;;;;;;17.17;81.57;96355.63;5008935;28;20448;-76
2021/07/18 06:16:40;;;;;;;5.05;2.15;;;;;;;17.51;81.26;96354.69;5012164;28;20428;-75
2021/07/18 06:19:05;;;;;;;5.87;2.00;;;;;;;17.81;82.72;96354.81;5012446;28;20436;-71
2021/07/18 06:21:30;;;;;;;6.10;2.03;;;;;;;18.04;83.68;96357.31;5012740;28;20428;-76
2021/07/18 06:23:56;;;;;;;3.33;1.90;;;;;;;18.22;77.62;96352.34;5011701;28;20448;-76
2021/07/18 06:26:21;;;;;;;3.47;2.00;;;;;;;18.16;77.07;96360.72;5012800;28;20459;-75
2021/07/18 06:28:48;;;;;;;3.50;1.73;;;;;;;18.28;79.18;96363.16;5011351;28;20964;-75
2021/07/18 06:31:13;;;;;;;4.60;1.92;;;;;;;18.07;79.63;96363.16;5011855;28;20869;-75
2021/07/18 06:33:39;;;;;;;4.43;1.80;;;;;;;18.35;81.09;96371.31;5012777;28;20428;-75
2021/07/18 06:36:04;;;;;;;3.60;1.80;;;;;;;18.52;79.06;96362.84;5011628;28;20420;-75
2021/07/18 06:38:30;;;;;;;4.20;1.60;;;;;;;18.51;73.66;96365.63;5011648;28;20433;-76
2021/07/18 06:40:56;;;;;;;5.20;1.67;;;;;;;18.38;74.12;96364.00;5012405;28;20503;-76
2021/07/18 06:43:21;;;;;;;5.03;1.67;;;;;;;18.88;75.68;96371.19;5012095;28;20847;-75
2021/07/18 06:45:48;;;;;;;11.73;1.80;;;;;;;19.07;72.29;96366.00;5011055;28;20435;-75
2021/07/18 06:48:13;;;;;;;6.10;1.70;;;;;;;19.07;71.43;96373.88;5011068;28;20444;-75
2021/07/18 06:50:39;;;;;;;4.50;1.75;;;;;;;19.31;75.29;96373.50;5010942;28;20487;-75
2021/07/18 06:53:04;;;;;;;2.47;1.53;;;;;;;19.15;71.10;96380.25;5012005;28;20436;-75
2021/07/18 06:55:30;;;;;;;4.67;1.83;;;;;;;19.61;73.15;96389.31;5011923;28;20451;-75
2021/07/18 06:57:55;;;;;;;3.27;1.80;;;;;;;19.22;71.20;96384.00;5010823;28;21000;-75
2021/07/18 07:00:22;;;;;;;2.63;1.90;;;;;;;19.25;71.73;96381.94;5018037;28;20841;-75
2021/07/18 07:02:49;;;;;;;4.72;2.13;;;;;;;19.40;69.02;96390.25;5010832;28;20451;-75
2021/07/18 07:05:16;;;;;;;7.55;1.92;;;;;;;19.33;69.51;96382.09;5010178;28;20519;-75
2021/07/18 07:07:46;;;;;;;3.10;1.90;;;;;;;18.85;71.99;96388.03;5012036;28;20921;-75
2021/07/18 07:10:12;;;;;;;7.03;2.22;;;;;;;19.46;71.51;96375.72;5011145;28;20428;-74
2021/07/18 07:12:40;;;;;;;7.78;1.92;;;;;;;19.22;71.55;96374.31;5011450;28;21197;-75
2021/07/18 07:15:05;;;;;;;5.60;2.20;;;;;;;19.45;73.25;96382.78;5010356;28;20424;-75
2021/07/18 07:17:31;;;;;;;3.55;2.10;;;;;;;19.83;71.18;96392.53;5010220;28;20436;-75
2021/07/18 07:19:58;;;;;;;3.33;2.28;;;;;;;20.09;72.73;96386.69;5011283;28;20507;-75
2021/07/18 07:22:24;;;;;;;3.42;1.80;;;;;;;20.13;69.92;96389.88;5011288;28;20436;-75
2021/07/18 07:24:49;;;;;;;5.00;2.20;;;;;;;19.57;69.88;96379.06;5004842;28;20426;-75
2021/07/18 07:27:15;;;;;;;5.07;2.07;;;;;;;19.63;70.84;96382.16;5006249;28;20794;-75
2021/07/18 07:29:41;;;;;;;6.28;2.28;;;;;;;19.58;70.73;96380.75;5016636;28;20422;-76
2021/07/18 07:32:07;;;;;;;4.17;2.20;;;;;;;19.73;72.31;96381.19;5011574;28;20428;-75
2021/07/18 07:34:33;;;;;;;6.57;2.40;;;;;;;20.18;70.03;96385.06;5010010;28;20429;-74
2021/07/18 07:37:00;;;;;;;6.30;2.15;;;;;;;20.43;74.44;96386.22;5011716;28;20606;-74
2021/07/18 07:39:26;;;;;;;7.47;2.30;;;;;;;20.38;68.31;96391.09;5010363;28;20443;-74
2021/07/18 07:41:52;;;;;;;2.72;1.70;;;;;;;20.93;70.32;96394.69;5011107;28;20902;-74
2021/07/18 07:44:17;;;;;;;6.10;1.90;;;;;;;20.89;66.94;96395.97;5011246;28;20810;-74
2021/07/18 07:46:44;;;;;;;5.67;2.17;;;;;;;20.69;72.95;96395.22;5009567;28;20455;-74
2021/07/18 07:49:09;;;;;;;8.65;2.25;;;;;;;21.05;70.72;96383.97;5010070;28;20425;-74
2021/07/18 07:51:35;;;;;;;5.28;2.20;;;;;;;20.96;67.78;96386.50;5011295;28;20452;-75
2021/07/18 07:54:02;;;;;;;5.38;2.22;;;;;;;21.45;71.25;96389.75;5010870;28;20412;-75
2021/07/18 07:56:28;;;;;;;6.95;2.80;;;;;;;21.38;67.04;96380.78;5011120;28;20433;-74
2021/07/18 07:58:53;;;;;;;6.15;2.00;;;;;;;21.38;69.59;96387.84;5009932;28;20436;-76
2021/07/18 08:01:18;;;;;;;4.23;2.37;;;;;;;21.57;67.22;96376.34;5009111;23;20449;-76
2021/07/18 08:03:44;;;;;;;6.57;2.20;;;;;;;21.59;68.09;96382.31;4990957;28;20429;-74
2021/07/18 08:06:09;;;;;;;8.32;2.53;;;;;;;21.53;65.11;96377.63;4990970;28;20600;-77
2021/07/18 08:08:35;;;;;;;7.93;2.80;;;;;;;21.85;69.56;96377.13;4990357;28;20924;-75
2021/07/18 08:11:02;;;;;;;6.03;2.50;;;;;;;21.14;66.46;96376.03;4991123;28;20436;-75
2021/07/18 08:13:28;;;;;;;5.32;2.33;;;;;;;20.30;70.19;96381.28;4990344;28;20526;-75
2021/07/18 08:15:53;;;;;;;6.70;2.67;;;;;;;21.11;69.52;96375.50;4990041;28;20509;-74
2021/07/18 08:18:19;;;;;;;5.17;2.63;;;;;;;21.14;71.97;96367.31;4991961;28;20499;-75
2021/07/18 08:20:44;;;;;;;4.25;2.50;;;;;;;20.61;69.58;96381.09;4990690;28;20927;-74
2021/07/18 08:23:09;;;;;;;6.87;2.43;;;;;;;20.85;69.82;96375.34;4991222;28;20484;-75
2021/07/18 08:25:35;;;;;;;4.80;2.70;;;;;;;20.82;67.63;96370.38;4989992;28;20433;-75
2021/07/18 08:28:02;;;;;;;6.77;2.40;;;;;;;21.62;68.78;96374.13;4990120;28;20440;-75
2021/07/18 08:30:28;;;;;;;7.28;2.33;;;;;;;21.78;65.61;96371.63;4991181;28;20500;-74
2021/07/18 08:32:53;;;;;;;8.05;2.42;;;;;;;22.14;69.08;96369.81;4991301;28;20406;-75
2021/07/18 08:35:19;;;;;;;6.03;2.73;;;;;;;22.32;65.30;96375.06;4989894;28;20480;-75
2021/07/18 08:37:45;;;;;;;5.57;2.55;;;;;;;22.21;68.70;96373.50;4991258;28;20418;-75
2021/07/18 08:40:13;;;;;;;7.35;2.38;;;;;;;21.41;65.10;96380.47;4991310;28;20471;-75
2021/07/18 08:42:39;;;;;;;5.22;2.10;;;;;;;20.98;71.97;96376.66;4991346;28;20434;-75
2021/07/18 08:45:09;;;;;;;6.55;2.38;;;;;;;22.05;72.34;96383.88;4983757;28;21001;-74
2021/07/18 08:47:34;;;;;;;6.78;2.30;;;;;;;21.79;63.62;96378.53;4977016;28;20430;-75
2021/07/18 08:50:00;;;;;;;6.32;2.47;;;;;;;21.60;65.01;96376.06;4991130;28;20414;-75
2021/07/18 08:52:26;;;;;;;7.15;2.40;;;;;;;22.07;65.09;96376.66;4991003;28;20498;-77
2021/07/18 08:54:52;;;;;;;6.60;2.50;;;;;;;21.90;66.32;96369.56;4984935;28;20445;-77
2021/07/18 08:57:19;;;;;;;5.15;2.17;;;;;;;22.40;64.64;96369.84;4989865;28;20431;-77
2021/07/18 08:59:45;;;;;;;5.90;2.42;;;;;;;22.38;63.52;96376.25;4988979;28;20426;-76
2021/07/18 09:02:12;;;;;;;7.43;2.75;;;;;;;22.29;64.17;96375.38;4979697;28;20438;-76
2021/07/18 09:04:37;;;;;;;5.47;2.38;;;;;;;22.83;65.37;96373.38;4971124;28;20507;-76
2021/07/18 09:07:05;;;;;;;4.63;2.13;;;;;;;23.24;66.17;96362.16;4973440;28;20511;-76
2021/07/18 09:09:32;;;;;;;4.60;2.20;;;;;;;23.38;64.31;96366.84;4983123;28;20442;-77
2021/07/18 09:11:59;;;;;;;4.85;2.38;;;;;;;23.43;62.86;96370.69;4993808;28;20434;-77
2021/07/18 09:14:32;;;;;;;8.93;2.50;;;;;;;22.99;59.95;96366.53;4992607;28;20430;-76
2021/07/18 09:16:58;;;;;;;5.15;2.55;;;;;;;22.83;61.53;96367.25;4989454;28;20442;-77
2021/07/18 09:19:29;;;;;;;3.70;2.22;;;;;;;23.27;61.99;96370.59;4992414;28;20434;-76
2021/07/18 09:22:22;;;;;;;4.20;2.53;;;;;;;23.35;66.31;96373.28;4987713;28;20426;-77
2021/07/18 09:24:51;;;;;;;4.60;2.45;;;;;;;23.61;66.56;96367.88;4990810;28;20489;-77
2021/07/18 09:27:20;;;;;;;5.53;2.38;;;;;;;23.43;60.92;96365.38;4993739;28;20433;-77
2021/07/18 09:29:49;;;;;;;4.25;2.33;;;;;;;23.93;63.46;96368.94;4985210;28;20454;-77
2021/07/18 09:32:16;;;;;;;5.68;2.38;;;;;;;23.83;60.86;96363.81;4989907;28;20509;-76
2021/07/18 09:34:44;;;;;;;8.48;2.88;;;;;;;23.37;64.27;96360.72;4986138;28;20432;-76
2021/07/18 09:37:14;;;;;;;8.63;2.60;;;;;;;23.35;60.43;96357.41;4988419;28;20422;-77
2021/07/18 09:39:40;;;;;;;4.30;2.58;;;;;;;23.58;61.67;96351.50;4992094;28;20449;-78
2021/07/18 09:42:06;;;;;;;6.65;2.55;;;;;;;23.99;64.13;96354.22;4994191;28;20507;-78
2021/07/18 09:44:42;;;;;;;4.72;2.65;;;;;;;24.17;64.88;96354.06;4996345;28;20461;-78
2021/07/18 09:47:08;;;;;;;8.73;2.78;;;;;;;22.65;61.23;96357.59;4991785;28;20426;-77
2021/07/18 09:49:34;;;;;;;4.33;2.50;;;;;;;23.15;62.02;96350.75;4982669;28;20442;-77
2021/07/18 09:52:20;;;;;;;4.82;2.35;;;;;;;23.57;65.78;96352.50;4980346;28;20506;-77
2021/07/18 09:54:46;;;;;;;4.80;2.30;;;;;;;23.60;61.41;96354.84;4993349;28;20532;-76
2021/07/18 09:57:31;;;;;;;6.72;2.30;;;;;;;23.79;65.82;96357.19;4990081;28;20438;-77
2021/07/18 09:59:57;;;;;;;5.28;2.40;;;;;;;23.41;60.33;96359.41;4989353;28;20454;-77
2021/07/18 10:02:24;;;;;;;6.47;2.55;;;;;;;23.83;61.40;96349.75;4993362;28;21211;-77
2021/07/18 10:04:50;;;;;;;5.32;2.50;;;;;;;24.24;61.12;96347.94;4988709;28;20458;-77
2021/07/18 10:07:21;;;;;;;4.88;2.38;;;;;;;23.88;57.54;96345.63;4991501;28;20520;-77
2021/07/18 10:09:46;;;;;;;9.50;2.58;;;;;;;24.07;59.82;96346.31;4993121;28;20438;-78
2021/07/18 10:12:12;;;;;;;6.03;2.57;;;;;;;24.30;63.68;96349.09;4992638;28;20447;-77
2021/07/18 10:14:38;;;;;;;3.78;2.42;;;;;;;24.06;57.98;96349.91;4994158;28;20425;-78
2021/07/18 10:17:04;;;;;;;7.22;2.63;;;;;;;23.90;58.90;96337.53;4993120;28;20761;-76
2021/07/18 10:19:31;;;;;;;4.40;2.25;;;;;;;23.87;64.74;96343.97;4992223;28;20457;-76
2021/07/18 10:21:57;;;;;;;5.73;2.67;;;;;;;24.08;62.41;96340.84;4990704;28;20525;-76
2021/07/18 10:24:26;;;;;;;7.32;2.70;;;;;;;24.28;62.62;96336.00;4988143;28;20423;-76
2021/07/18 10:26:52;;;;;;;6.32;2.70;;;;;;;23.72;59.64;96342.97;4991236;28;20765;-76
2021/07/18 10:29:17;;;;;;;4.88;2.33;;;;;;;23.50;61.34;96340.94;4992541;28;20468;-76
2021/07/18 10:31:49;;;;;;;5.53;2.40;;;;;;;23.59;58.87;96332.03;4993396;28;20418;-76
2021/07/18 10:34:16;;;;;;;4.78;2.22;;;;;;;23.91;60.33;96337.34;4974388;28;20432;-77
2021/07/18 10:36:43;;;;;;;6.15;2.58;;;;;;;24.11;62.11;96335.22;4976484;28;20432;-77
2021/07/18 10:39:30;;;;;;;6.82;2.38;;;;;;;24.40;62.15;96336.53;4981336;28;20812;-77
2021/07/18 10:41:56;;;;;;;5.55;2.42;;;;;;;23.35;59.13;96335.44;4991829;28;20426;-76
2021/07/18 10:44:22;;;;;;;9.45;2.80;;;;;;;23.04;59.17;96333.38;4992396;28;20454;-75
2021/07/18 10:46:56;;;;;;;4.07;2.40;;;;;;;23.32;63.07;96333.94;4991666;28;20454;-75
2021/07/18 10:49:55;;;;;;;4.95;2.60;;;;;;;23.91;64.30;96331.25;4987833;28;20428;-76
2021/07/18 10:52:23;;;;;;;4.73;2.30;;;;;;;23.56;62.50;96332.34;4961710;28;20448;-75
2021/07/18 10:54:50;;;;;;;7.65;2.75;;;;;;;23.94;61.29;96341.50;4987193;28;20868;-76
2021/07/18 10:57:21;;;;;;;9.15;2.60;;;;;;;23.76;63.99;96333.72;4990977;28;20417;-76
2021/07/18 10:59:47;;;;;;;7.53;3.28;;;;;;;23.33;59.72;96332.97;4986588;28;20419;-76
2021/07/18 11:02:13;;;;;;;5.50;2.33;;;;;;;24.02;59.22;96330.09;4987223;28;20863;-75
2021/07/18 11:04:42;;;;;;;4.67;2.70;;;;;;;24.00;60.75;96335.56;4987220;28;20939;-76
2021/07/18 11:07:28;;;;;;;8.02;2.72;;;;;;;24.13;61.53;96340.31;4986238;28;20422;-76
2021/07/18 11:09:57;;;;;;;3.75;2.28;;;;;;;24.19;57.90;96329.09;4989958;28;20492;-76
2021/07/18 11:12:24;;;;;;;6.72;2.70;;;;;;;24.28;58.57;96333.34;4991132;28;20477;-76
2021/07/18 11:14:50;;;;;;;3.75;2.30;;;;;;;24.25;56.29;96324.94;4991394;28;20433;-76
2021/07/18 11:17:25;;;;;;;7.35;2.80;;;;;;;23.92;57.64;96332.91;4990119;28;20438;-76
2021/07/18 11:19:55;;;;;;;4.90;2.50;;;;;;;23.45;60.28;96327.38;4985427;28;20905;-76
2021/07/18 11:23:01;;;;;;;4.47;2.38;;;;;;;23.97;63.17;96332.41;4990725;28;20457;-75
2021/07/18 11:25:47;;;;;;;6.28;2.40;;;;;;;23.76;58.64;96323.13;4991835;28;20430;-75